Etusivu
METAR-TAF:

METAR-TAF

Lentoasemat :

Reus, Espanja

Leveyspiiri: 41-09N, Pituuspiiri: 001-10E, korkeus merenpinnasta: 71 m

Tämänhetkinen sää

Tämä raportti tehtiin 18 minuuttia sitten, kello 20.00 UTC
Tuuli 8 kn pohjoisesta
Lämpötila 11°C
Kosteus 76%
Ilmanpaine 1014 hPa
Näkyvyys 10 km tai enemmän
ei pilviä alle 1500 m:ssä eikä cumulonimbus-pilviä

METAR: LERS 212000Z 01008KT CAVOK 11/07 Q1014

Aika: 21:18 (20:18 UTC)

Sääennuste

Tämä raportti tehtiin 6 tuntia ja 18 minuuttia sitten, kello 14.00 UTC
Ennuste voimassa 21. päivästä klo 15 UTC - 22. päivään klo 15 UTC
Tuuli 4 kn eri suunnista
Näkyvyys 10 km tai enemmän
Muutamia pilviä 4000 ft:n korkeudessa

TAF: LERS 211400Z 2115/2215 VRB04KT 9999 FEW040 TX18/2213Z TN07/2205Z

Säähavainnot ja -ennusteet yli 4000 lentoasemalta (METAR- ja TAF-raportit).

Käytössä olevat sääasemat on merkitty karttaan keltaisilla ja punaisilla pisteillä.

Aseta hiiri pisteen päälle nähdäksesi sääaseman nimen.

Klikkaa sitten nähdäksesi säähavainnot ja -ennusteet.

Kartan vaihtaminen: klikkaa mustalla rastilla varustettuja vihreitä pisteitä, niin voit zoomata sisään; viivalla varustettua vihreää pistettä, niin voit zoomata ulos tai vihreitä nuolia, niin pääset viereisille kartoille.


METAR-TAF: